createdAt,value
2023-04-09T00:02:19.940Z,5.53
2023-04-09T00:04:47.213Z,6.07
2023-04-09T00:07:14.393Z,6.43
2023-04-09T00:09:41.574Z,7.13
2023-04-09T00:12:08.839Z,5.70
2023-04-09T00:14:35.948Z,5.50
2023-04-09T00:17:03.075Z,6.37
2023-04-09T00:19:30.195Z,5.90
2023-04-09T00:21:57.382Z,5.53
2023-04-09T00:24:24.534Z,5.83
2023-04-09T00:26:53.431Z,6.07
2023-04-09T00:29:20.638Z,5.73
2023-04-09T00:31:47.888Z,9.57
2023-04-09T00:34:15.296Z,5.90
2023-04-09T00:36:42.617Z,6.13
2023-04-09T00:39:09.877Z,6.10
2023-04-09T00:41:37.070Z,5.43
2023-04-09T00:44:04.227Z,5.07
2023-04-09T00:46:32.509Z,8.27
2023-04-09T00:49:00.159Z,4.90
2023-04-09T00:51:28.603Z,5.23
2023-04-09T00:53:56.034Z,5.67
2023-04-09T00:56:24.709Z,5.50
2023-04-09T00:58:52.056Z,5.37
2023-04-09T01:01:19.640Z,5.37
2023-04-09T01:03:46.948Z,5.00
2023-04-09T01:06:29.053Z,5.63
2023-04-09T01:09:15.769Z,4.30
2023-04-09T01:11:42.905Z,5.63
2023-04-09T01:14:12.880Z,5.47
2023-04-09T01:16:43.344Z,4.93
2023-04-09T01:19:16.247Z,5.40
2023-04-09T01:21:44.115Z,4.67
2023-04-09T01:24:21.759Z,4.57
2023-04-09T01:27:07.882Z,5.70
2023-04-09T01:29:41.536Z,4.97
2023-04-09T01:32:08.709Z,4.43
2023-04-09T01:34:36.642Z,5.73
2023-04-09T01:37:04.450Z,4.50
2023-04-09T01:39:31.815Z,6.53
2023-04-09T01:41:59.030Z,3.77
2023-04-09T01:44:27.584Z,4.90
2023-04-09T01:46:55.504Z,5.07
2023-04-09T01:49:22.783Z,3.83
2023-04-09T01:51:50.207Z,4.47
2023-04-09T01:54:17.496Z,4.30
2023-04-09T01:56:45.591Z,4.50
2023-04-09T01:59:12.739Z,4.03
2023-04-09T02:01:45.127Z,4.00
2023-04-09T02:04:17.120Z,3.80
2023-04-09T02:06:50.161Z,4.10
2023-04-09T02:09:19.558Z,4.37
2023-04-09T02:11:47.149Z,5.20
2023-04-09T02:14:14.370Z,5.90
2023-04-09T02:16:42.215Z,4.23
2023-04-09T02:19:09.432Z,5.17
2023-04-09T02:21:36.558Z,5.63
2023-04-09T02:24:03.788Z,5.30
2023-04-09T02:26:30.918Z,5.53
2023-04-09T02:28:58.034Z,6.07
2023-04-09T02:31:25.303Z,4.30
2023-04-09T02:33:54.209Z,5.53
2023-04-09T02:36:21.728Z,4.77
2023-04-09T02:38:48.865Z,4.87
2023-04-09T02:41:16.240Z,5.03
2023-04-09T02:43:43.400Z,4.27
2023-04-09T02:46:10.667Z,3.87
2023-04-09T02:48:37.877Z,4.70
2023-04-09T02:51:08.268Z,4.90
2023-04-09T02:53:35.404Z,4.67
2023-04-09T02:56:02.548Z,4.27
2023-04-09T02:58:29.662Z,5.57
2023-04-09T03:00:56.784Z,4.90
2023-04-09T03:03:23.989Z,5.17
2023-04-09T03:05:51.175Z,4.97
2023-04-09T03:08:18.332Z,4.97
2023-04-09T03:10:45.470Z,4.53
2023-04-09T03:13:12.653Z,5.13
2023-04-09T03:15:39.855Z,3.60
2023-04-09T03:18:07.005Z,4.93
2023-04-09T03:20:34.265Z,5.63
2023-04-09T03:23:01.527Z,5.77
2023-04-09T03:25:28.643Z,4.50
2023-04-09T03:27:55.932Z,5.67
2023-04-09T03:30:23.125Z,4.93
2023-04-09T03:32:50.286Z,4.00
2023-04-09T03:35:17.554Z,5.23
2023-04-09T03:37:44.670Z,4.80
2023-04-09T03:40:12.125Z,5.17
2023-04-09T03:42:39.248Z,4.57
2023-04-09T03:45:06.617Z,5.97
2023-04-09T03:47:33.995Z,4.67
2023-04-09T03:50:01.243Z,4.13
2023-04-09T03:52:28.449Z,4.20
2023-04-09T03:54:55.722Z,5.10
2023-04-09T03:57:22.872Z,4.13
2023-04-09T03:59:50.042Z,4.40
2023-04-09T04:02:17.299Z,3.90
2023-04-09T04:04:44.531Z,4.67
2023-04-09T04:07:11.763Z,4.80
2023-04-09T04:09:38.925Z,4.33
2023-04-09T04:12:06.171Z,4.23
2023-04-09T04:14:33.314Z,5.27
2023-04-09T04:17:00.669Z,4.00
2023-04-09T04:19:27.851Z,4.73
2023-04-09T04:21:55.000Z,4.80
2023-04-09T04:24:22.110Z,5.17
2023-04-09T04:26:49.272Z,3.93
2023-04-09T04:29:16.486Z,4.93
2023-04-09T04:31:43.647Z,6.93
2023-04-09T04:34:10.818Z,4.07
2023-04-09T04:36:38.047Z,5.30
2023-04-09T04:39:05.315Z,4.33
2023-04-09T04:41:32.425Z,5.23
2023-04-09T04:43:59.539Z,4.83
2023-04-09T04:46:26.709Z,4.47
2023-04-09T04:48:54.123Z,5.17
2023-04-09T04:51:21.493Z,4.13
2023-04-09T04:53:48.632Z,5.30
2023-04-09T04:56:16.100Z,3.70
2023-04-09T04:58:43.493Z,4.57
2023-04-09T05:01:10.779Z,4.80
2023-04-09T05:03:38.070Z,4.53
2023-04-09T05:06:05.556Z,4.37
2023-04-09T05:08:32.685Z,4.80
2023-04-09T05:10:59.896Z,5.47
2023-04-09T05:13:27.111Z,4.00
2023-04-09T05:15:54.263Z,4.90
2023-04-09T05:18:21.615Z,5.37
2023-04-09T05:20:48.751Z,3.43
2023-04-09T05:23:15.926Z,5.77
2023-04-09T05:25:43.156Z,4.70
2023-04-09T05:28:11.343Z,4.03
2023-04-09T05:30:38.549Z,4.60
2023-04-09T05:33:05.701Z,3.60
2023-04-09T05:35:32.858Z,5.20
2023-04-09T05:38:00.431Z,4.10
2023-04-09T05:40:27.562Z,3.63
2023-04-09T05:42:54.894Z,3.83
2023-04-09T05:45:22.255Z,4.87
2023-04-09T05:47:49.461Z,3.03
2023-04-09T05:50:16.889Z,3.83
2023-04-09T05:52:44.030Z,4.27
2023-04-09T05:55:11.494Z,3.20
2023-04-09T05:57:38.629Z,4.07
2023-04-09T06:00:06.082Z,3.77
2023-04-09T06:02:33.324Z,4.03
2023-04-09T06:05:00.637Z,5.87
2023-04-09T06:07:27.780Z,4.03
2023-04-09T06:09:56.420Z,3.37
2023-04-09T06:12:23.567Z,3.10
2023-04-09T06:14:50.968Z,4.97
2023-04-09T06:17:18.156Z,3.80
2023-04-09T06:19:45.316Z,4.77
2023-04-09T06:22:12.491Z,3.60
2023-04-09T06:24:39.693Z,5.57
2023-04-09T06:27:06.851Z,4.07
2023-04-09T06:29:34.001Z,3.13
2023-04-09T06:32:01.367Z,5.03
2023-04-09T06:34:28.550Z,8.77
2023-04-09T06:36:56.003Z,4.67
2023-04-09T06:39:23.135Z,3.80
2023-04-09T06:41:50.534Z,3.47
2023-04-09T06:44:17.825Z,3.20
2023-04-09T06:46:45.121Z,10.23
2023-04-09T06:49:12.280Z,5.00
2023-04-09T06:51:39.441Z,3.67
2023-04-09T06:54:06.585Z,4.07
2023-04-09T06:56:34.326Z,3.10
2023-04-09T06:59:01.519Z,3.90
2023-04-09T07:01:28.682Z,3.20
2023-04-09T07:03:56.290Z,4.30
2023-04-09T07:06:23.825Z,3.53
2023-04-09T07:08:51.274Z,4.63
2023-04-09T07:11:18.628Z,4.43
2023-04-09T07:13:45.796Z,4.77
2023-04-09T07:16:12.915Z,3.07
2023-04-09T07:18:40.215Z,3.70
2023-04-09T07:21:07.350Z,4.33
2023-04-09T07:23:37.534Z,3.63
2023-04-09T07:26:05.362Z,3.10
2023-04-09T07:28:32.534Z,4.50
2023-04-09T07:31:02.757Z,3.17
2023-04-09T07:33:30.149Z,3.30
2023-04-09T07:35:57.745Z,4.63
2023-04-09T07:38:24.981Z,2.27
2023-04-09T07:40:52.166Z,2.83
2023-04-09T07:43:20.774Z,4.57
2023-04-09T07:45:51.309Z,4.07
2023-04-09T07:48:18.654Z,2.23
2023-04-09T07:50:45.773Z,3.80
2023-04-09T07:53:12.953Z,2.30
2023-04-09T07:55:40.767Z,3.13
2023-04-09T07:58:07.912Z,2.87
2023-04-09T08:00:35.312Z,3.13
2023-04-09T08:03:04.010Z,2.00
2023-04-09T08:05:31.520Z,2.50
2023-04-09T08:07:58.671Z,3.33
2023-04-09T08:10:25.851Z,2.73
2023-04-09T08:12:53.006Z,2.80
2023-04-09T08:15:20.305Z,3.50
2023-04-09T08:17:47.515Z,2.37
2023-04-09T08:20:16.859Z,3.47
2023-04-09T08:22:45.334Z,3.03
2023-04-09T08:25:12.477Z,3.20
2023-04-09T08:27:39.797Z,3.80
2023-04-09T08:30:07.638Z,2.10
2023-04-09T08:32:35.570Z,2.37
2023-04-09T08:35:02.761Z,2.90
2023-04-09T08:37:29.942Z,3.47
2023-04-09T08:39:57.059Z,1.53
2023-04-09T08:42:26.085Z,2.93
2023-04-09T08:44:53.268Z,2.67
2023-04-09T08:47:21.190Z,2.67
2023-04-09T08:49:50.213Z,2.90
2023-04-09T08:52:21.771Z,2.83
2023-04-09T08:54:48.948Z,2.33
2023-04-09T08:57:16.293Z,3.73
2023-04-09T08:59:43.492Z,3.83
2023-04-09T09:02:11.705Z,3.83
2023-04-09T09:04:49.093Z,3.50
2023-04-09T09:07:16.702Z,3.27
2023-04-09T09:09:53.327Z,3.27
2023-04-09T09:12:34.321Z,2.77
2023-04-09T09:15:01.697Z,2.27
2023-04-09T09:17:28.853Z,4.60
2023-04-09T09:19:56.016Z,3.53
2023-04-09T09:22:23.157Z,2.93
2023-04-09T09:24:51.647Z,3.57
2023-04-09T09:27:36.505Z,4.00
2023-04-09T09:30:05.707Z,3.03
2023-04-09T09:32:33.706Z,4.03
2023-04-09T09:35:07.913Z,4.20
2023-04-09T09:37:35.121Z,3.20
2023-04-09T09:40:02.577Z,2.97
2023-04-09T09:42:29.778Z,2.70
2023-04-09T09:44:57.241Z,2.63
2023-04-09T09:47:25.491Z,3.70
2023-04-09T09:49:53.062Z,3.87
2023-04-09T09:52:23.382Z,3.73
2023-04-09T09:54:53.321Z,3.23
2023-04-09T09:57:23.599Z,3.40
2023-04-09T10:00:01.435Z,4.50
2023-04-09T10:02:31.358Z,4.03
2023-04-09T10:05:00.882Z,4.55
2023-04-09T10:07:28.494Z,3.03
2023-04-09T10:09:57.266Z,3.80
2023-04-09T10:12:25.858Z,4.83
2023-04-09T10:14:53.537Z,5.15
2023-04-09T10:17:21.705Z,3.90
2023-04-09T10:20:12.185Z,2.77
2023-04-09T10:22:39.497Z,3.22
2023-04-09T10:25:07.171Z,3.40
2023-04-09T10:27:34.327Z,2.95
2023-04-09T10:30:02.384Z,3.35
2023-04-09T10:32:36.152Z,4.07
2023-04-09T10:35:04.185Z,2.55
2023-04-09T10:37:31.818Z,3.33
2023-04-09T10:39:59.090Z,2.45
2023-04-09T10:42:40.988Z,2.63
2023-04-09T10:45:15.110Z,2.90
2023-04-09T10:47:43.438Z,2.53
2023-04-09T10:50:23.932Z,3.08
2023-04-09T10:52:56.523Z,1.67
2023-04-09T10:55:44.354Z,2.42
2023-04-09T10:58:13.567Z,3.08
2023-04-09T11:00:42.297Z,2.92
2023-04-09T11:03:09.651Z,3.45
2023-04-09T11:05:40.495Z,2.25
2023-04-09T11:08:12.194Z,1.83
2023-04-09T11:10:39.940Z,2.17
2023-04-09T11:13:08.130Z,1.30
2023-04-09T11:15:36.783Z,4.50
2023-04-09T11:18:04.602Z,5.45
2023-04-09T11:20:34.050Z,3.33
2023-04-09T11:23:01.167Z,2.42
2023-04-09T11:25:29.184Z,2.53
2023-04-09T11:27:56.510Z,2.00
2023-04-09T11:30:23.661Z,1.83
2023-04-09T11:32:51.297Z,1.52
2023-04-09T11:35:21.003Z,3.33
2023-04-09T11:37:48.975Z,4.60
2023-04-09T11:40:16.779Z,3.35
2023-04-09T11:42:44.806Z,3.33
2023-04-09T11:45:12.747Z,3.58
2023-04-09T11:47:43.617Z,2.10
2023-04-09T11:50:11.694Z,3.20
2023-04-09T11:52:39.772Z,3.38
2023-04-09T11:55:07.055Z,5.03
2023-04-09T11:57:42.926Z,4.80
2023-04-09T12:00:16.925Z,3.05
2023-04-09T12:02:48.601Z,3.75
2023-04-09T12:05:24.611Z,4.30
2023-04-09T12:07:56.226Z,2.90
2023-04-09T12:10:27.194Z,3.33
2023-04-09T12:12:54.349Z,3.58
2023-04-09T12:15:22.825Z,3.03
2023-04-09T12:17:54.980Z,2.95
2023-04-09T12:20:36.176Z,2.35
2023-04-09T12:23:04.659Z,3.10
2023-04-09T12:25:36.572Z,2.70
2023-04-09T12:28:04.393Z,2.35
2023-04-09T12:30:31.545Z,3.53
2023-04-09T12:32:59.052Z,3.03
2023-04-09T12:35:26.864Z,5.63
2023-04-09T12:37:54.150Z,3.17
2023-04-09T12:40:21.606Z,2.75
2023-04-09T12:42:49.005Z,3.25
2023-04-09T12:45:17.260Z,3.72
2023-04-09T12:47:44.739Z,4.80
2023-04-09T12:50:12.797Z,4.13
2023-04-09T12:52:40.300Z,3.25
2023-04-09T12:55:07.851Z,3.90
2023-04-09T12:57:35.171Z,5.85
2023-04-09T13:00:02.392Z,2.97
2023-04-09T13:02:30.260Z,4.00
2023-04-09T13:04:57.624Z,3.42
2023-04-09T13:07:26.085Z,3.60
2023-04-09T13:09:53.357Z,4.28
2023-04-09T13:12:21.612Z,2.95
2023-04-09T13:14:49.456Z,3.25
2023-04-09T13:17:16.759Z,3.42
2023-04-09T13:19:43.932Z,2.63
2023-04-09T13:22:11.191Z,2.83
2023-04-09T13:24:39.481Z,3.25
2023-04-09T13:27:09.507Z,6.85
2023-04-09T13:29:36.897Z,4.00
2023-04-09T13:32:07.175Z,3.40
2023-04-09T13:34:35.371Z,4.65
2023-04-09T13:37:03.150Z,3.03
2023-04-09T13:39:30.371Z,4.60
2023-04-09T13:41:57.569Z,2.78
2023-04-09T13:44:27.451Z,3.25
2023-04-09T13:46:54.691Z,3.72
2023-04-09T13:49:21.921Z,3.97
2023-04-09T13:51:50.497Z,3.88
2023-04-09T13:54:18.155Z,3.33
2023-04-09T13:56:46.604Z,4.03
2023-04-09T13:59:13.742Z,3.83
2023-04-09T14:01:41.081Z,4.93
2023-04-09T14:04:08.517Z,7.00
2023-04-09T14:06:35.920Z,5.00
2023-04-09T14:09:03.150Z,3.23
2023-04-09T14:11:30.364Z,3.30
2023-04-09T14:13:57.545Z,3.93
2023-04-09T14:16:24.713Z,3.33
2023-04-09T14:18:52.049Z,2.73
2023-04-09T14:21:19.367Z,3.70
2023-04-09T14:23:46.623Z,3.43
2023-04-09T14:26:13.864Z,3.57
2023-04-09T14:28:41.592Z,3.57
2023-04-09T14:31:08.837Z,3.63
2023-04-09T14:33:36.017Z,3.87
2023-04-09T14:36:03.201Z,3.80
2023-04-09T14:38:30.399Z,3.13
2023-04-09T14:40:57.611Z,3.60
2023-04-09T14:43:25.397Z,4.37
2023-04-09T14:45:54.369Z,5.07
2023-04-09T14:48:21.563Z,4.90
2023-04-09T14:50:51.213Z,4.37
2023-04-09T14:53:18.609Z,4.17
2023-04-09T14:55:45.896Z,5.20
2023-04-09T14:58:13.031Z,4.43
2023-04-09T15:00:40.370Z,5.97
2023-04-09T15:03:07.777Z,4.53
2023-04-09T15:05:35.315Z,3.07
2023-04-09T15:08:02.568Z,3.20
2023-04-09T15:10:29.755Z,4.00
2023-04-09T15:12:56.889Z,3.37
2023-04-09T15:15:24.043Z,3.87
2023-04-09T15:17:51.525Z,5.30
2023-04-09T15:20:19.155Z,5.60
2023-04-09T15:22:46.357Z,4.00
2023-04-09T15:25:14.470Z,4.10
2023-04-09T15:27:41.836Z,4.27
2023-04-09T15:30:09.297Z,3.90
2023-04-09T15:32:37.038Z,4.47
2023-04-09T15:35:04.258Z,4.60
2023-04-09T15:37:31.455Z,4.53
2023-04-09T15:39:58.592Z,4.40
2023-04-09T15:42:25.773Z,5.07
2023-04-09T15:44:52.919Z,4.93
2023-04-09T15:47:20.109Z,5.40
2023-04-09T15:49:47.419Z,5.87
2023-04-09T15:52:14.594Z,5.70
2023-04-09T15:54:41.755Z,5.40
2023-04-09T15:57:08.906Z,4.90
2023-04-09T15:59:36.026Z,4.97
2023-04-09T16:02:04.496Z,5.27
2023-04-09T16:04:31.854Z,4.07
2023-04-09T16:06:59.073Z,5.27
2023-04-09T16:09:26.415Z,5.63
2023-04-09T16:11:53.546Z,5.67
2023-04-09T16:14:21.171Z,4.77
2023-04-09T16:16:49.980Z,5.20
2023-04-09T16:19:17.910Z,4.03
2023-04-09T16:21:45.590Z,5.27
2023-04-09T16:24:13.167Z,5.03
2023-04-09T16:26:41.207Z,5.60
2023-04-09T16:29:08.863Z,4.80
2023-04-09T16:31:36.850Z,4.20
2023-04-09T16:34:04.065Z,5.27
2023-04-09T16:36:33.498Z,4.47
2023-04-09T16:39:00.705Z,4.63
2023-04-09T16:41:27.872Z,4.83
2023-04-09T16:43:54.986Z,4.83
2023-04-09T16:46:22.198Z,4.90
2023-04-09T16:48:49.342Z,5.03
2023-04-09T16:51:17.112Z,4.63
2023-04-09T16:53:44.369Z,5.00
2023-04-09T16:56:11.858Z,5.07
2023-04-09T16:58:39.036Z,4.70
2023-04-09T17:01:06.451Z,4.27
2023-04-09T17:03:33.686Z,5.50
2023-04-09T17:06:01.717Z,5.23
2023-04-09T17:08:28.863Z,4.47
2023-04-09T17:11:02.034Z,8.97
2023-04-09T17:13:35.146Z,4.97
2023-04-09T17:16:02.877Z,5.27
2023-04-09T17:18:30.255Z,4.40
2023-04-09T17:20:57.466Z,4.10
2023-04-09T17:23:24.613Z,5.03
2023-04-09T17:25:52.158Z,4.57
2023-04-09T17:28:19.646Z,4.23
2023-04-09T17:30:47.230Z,3.53
2023-04-09T17:33:14.640Z,4.70
2023-04-09T17:35:43.373Z,5.83
2023-04-09T17:38:13.956Z,5.33
2023-04-09T17:40:41.167Z,5.80
2023-04-09T17:43:08.328Z,4.93
2023-04-09T17:45:35.616Z,5.53
2023-04-09T17:48:02.894Z,6.13
2023-04-09T17:50:30.196Z,4.27
2023-04-09T17:52:57.325Z,7.53
2023-04-09T17:55:24.581Z,5.93
2023-04-09T17:57:51.742Z,5.70
2023-04-09T18:00:18.911Z,6.00
2023-04-09T18:02:46.998Z,5.47
2023-04-09T18:05:14.641Z,5.20
2023-04-09T18:07:41.856Z,5.53
2023-04-09T18:10:09.199Z,6.33
2023-04-09T18:12:36.371Z,8.03
2023-04-09T18:15:04.294Z,7.07
2023-04-09T18:17:32.292Z,7.43
2023-04-09T18:19:59.553Z,7.83
2023-04-09T18:22:27.406Z,6.90
2023-04-09T18:24:54.625Z,6.00
2023-04-09T18:27:21.851Z,7.23
2023-04-09T18:29:51.963Z,6.53
2023-04-09T18:32:19.731Z,8.80
2023-04-09T18:34:47.634Z,6.37
2023-04-09T18:37:15.256Z,6.17
2023-04-09T18:39:42.558Z,5.87
2023-04-09T18:42:10.016Z,7.33
2023-04-09T18:44:37.705Z,8.53
2023-04-09T18:47:05.764Z,5.77
2023-04-09T18:49:33.585Z,6.70
2023-04-09T18:52:01.004Z,7.60
2023-04-09T18:54:28.454Z,5.67
2023-04-09T18:56:57.417Z,6.10
2023-04-09T18:59:24.649Z,11.87
2023-04-09T19:01:52.057Z,8.80
2023-04-09T19:04:19.400Z,8.27
2023-04-09T19:06:47.379Z,5.80
2023-04-09T19:09:14.510Z,6.50
2023-04-09T19:11:41.688Z,6.93
2023-04-09T19:14:08.828Z,5.30
2023-04-09T19:16:36.126Z,8.00
2023-04-09T19:19:03.573Z,8.33
2023-04-09T19:21:30.852Z,7.83
2023-04-09T19:23:59.971Z,8.10
2023-04-09T19:26:27.142Z,7.40
2023-04-09T19:28:54.483Z,6.60
2023-04-09T19:31:22.201Z,9.77
2023-04-09T19:33:49.448Z,10.30
2023-04-09T19:36:16.680Z,8.87
2023-04-09T19:38:43.814Z,8.90
2023-04-09T19:41:10.947Z,7.90
2023-04-09T19:43:39.336Z,7.23
2023-04-09T19:46:08.475Z,7.03
2023-04-09T19:48:36.602Z,6.73
2023-04-09T19:51:04.106Z,7.47
2023-04-09T19:53:31.342Z,6.53
2023-04-09T19:55:58.458Z,6.93
2023-04-09T19:58:26.023Z,6.60
2023-04-09T20:00:53.544Z,7.17
2023-04-09T20:03:20.913Z,5.80
2023-04-09T20:05:48.247Z,6.03
2023-04-09T20:08:16.012Z,8.87
2023-04-09T20:10:46.340Z,6.40
2023-04-09T20:13:13.757Z,6.03
2023-04-09T20:15:41.550Z,9.27
2023-04-09T20:18:08.718Z,6.57
2023-04-09T20:20:36.086Z,6.23
2023-04-09T20:23:03.339Z,5.10
2023-04-09T20:25:34.630Z,6.13
2023-04-09T20:28:04.789Z,6.97
2023-04-09T20:30:32.269Z,7.33
2023-04-09T20:32:59.507Z,7.87
2023-04-09T20:35:27.277Z,5.80
2023-04-09T20:37:55.113Z,6.30
2023-04-09T20:40:22.500Z,6.10
2023-04-09T20:42:49.719Z,6.07
2023-04-09T20:45:16.983Z,6.03
2023-04-09T20:47:44.175Z,7.47
2023-04-09T20:50:11.565Z,5.97
2023-04-09T20:52:38.789Z,7.20
2023-04-09T20:55:06.400Z,5.67
2023-04-09T20:57:33.770Z,6.30
2023-04-09T21:00:00.958Z,5.10
2023-04-09T21:02:28.410Z,5.90
2023-04-09T21:04:57.094Z,5.30
2023-04-09T21:07:24.902Z,6.20
2023-04-09T21:09:52.012Z,6.47
2023-04-09T21:12:19.144Z,5.47
2023-04-09T21:14:47.801Z,6.47
2023-04-09T21:17:14.986Z,5.67
2023-04-09T21:19:42.143Z,6.17
2023-04-09T21:22:09.291Z,8.67
2023-04-09T21:24:36.467Z,11.23
2023-04-09T21:27:06.855Z,6.80
2023-04-09T21:29:37.630Z,5.93
2023-04-09T21:32:04.828Z,6.17
2023-04-09T21:34:32.009Z,4.87
2023-04-09T21:36:59.197Z,5.73
2023-04-09T21:39:26.376Z,7.13
2023-04-09T21:41:53.544Z,5.03
2023-04-09T21:44:20.665Z,6.87
2023-04-09T21:46:47.868Z,6.77
2023-04-09T21:49:15.063Z,6.50
2023-04-09T21:51:42.683Z,7.53
2023-04-09T21:54:10.251Z,5.90
2023-04-09T21:56:37.827Z,5.67
2023-04-09T21:59:05.553Z,7.03
2023-04-09T22:01:34.389Z,6.47
2023-04-09T22:04:02.278Z,6.83
2023-04-09T22:06:29.900Z,6.23
2023-04-09T22:08:58.236Z,5.67
2023-04-09T22:11:29.237Z,5.40
2023-04-09T22:13:57.082Z,6.30
2023-04-09T22:16:24.982Z,7.40
2023-04-09T22:18:52.638Z,5.77
2023-04-09T22:21:20.085Z,7.33
2023-04-09T22:23:47.314Z,6.20
2023-04-09T22:26:14.492Z,5.60
2023-04-09T22:28:41.859Z,6.53
2023-04-09T22:31:09.018Z,6.37
2023-04-09T22:33:36.518Z,8.60
2023-04-09T22:36:03.707Z,7.10
2023-04-09T22:38:31.154Z,6.23
2023-04-09T22:40:58.283Z,6.93
2023-04-09T22:43:25.461Z,7.03
2023-04-09T22:45:53.307Z,5.63
2023-04-09T22:48:21.163Z,6.13
2023-04-09T22:50:48.734Z,6.37
2023-04-09T22:53:19.063Z,6.43
2023-04-09T22:55:54.568Z,6.90
2023-04-09T22:58:21.814Z,6.40
2023-04-09T23:00:49.626Z,6.03
2023-04-09T23:03:17.254Z,6.40
2023-04-09T23:05:44.467Z,6.43
2023-04-09T23:08:12.052Z,5.97
2023-04-09T23:10:39.312Z,6.90
2023-04-09T23:13:06.500Z,6.23
2023-04-09T23:15:33.619Z,6.07
2023-04-09T23:18:00.948Z,7.07
2023-04-09T23:20:29.923Z,7.53
2023-04-09T23:22:57.067Z,6.03
2023-04-09T23:25:24.264Z,6.53
2023-04-09T23:27:51.413Z,6.27
2023-04-09T23:30:18.721Z,6.70
2023-04-09T23:32:46.015Z,6.63
2023-04-09T23:35:13.573Z,5.30
2023-04-09T23:37:41.235Z,6.13
2023-04-09T23:40:08.952Z,6.60
2023-04-09T23:42:36.200Z,6.27
2023-04-09T23:45:04.276Z,6.93
2023-04-09T23:47:33.541Z,6.50
2023-04-09T23:50:04.985Z,6.70
2023-04-09T23:52:36.393Z,6.00
2023-04-09T23:55:04.181Z,7.03
2023-04-09T23:57:31.418Z,6.20
2023-04-09T23:59:58.809Z,6.10
